Time;durP1;ratioP1;P1;durP2;ratioP2;P2;SDS_P1;SDS_P2;PMS_P1;PMS_P2;Temp;Humidity;BMP_temperature;BMP_pressure;BME280_temperature;BME280_humidity;BME280_pressure;Samples;Min_cycle;Max_cycle;Signal;HPM_P1;HPM_P2
2022/05/31 00:00:24;;;;;;;5.95;4.35;;;10.20;99.90;;;;;;5037677;28;19963;-85
2022/05/31 00:02:50;;;;;;;;;;;10.20;99.90;;;;;;5071697;28;20049;-86
2022/05/31 00:05:16;;;;;;;5.90;3.45;;;10.20;99.90;;;;;;5054226;28;19985;-85
2022/05/31 00:07:42;;;;;;;4.00;3.53;;;10.20;99.90;;;;;;5054505;28;20500;-85
2022/05/31 00:10:11;;;;;;;3.22;2.83;;;10.10;99.90;;;;;;5054677;28;20048;-86
2022/05/31 00:12:37;;;;;;;4.35;3.88;;;10.00;99.90;;;;;;5071384;28;20036;-85
2022/05/31 00:15:04;;;;;;;8.15;4.18;;;10.00;99.90;;;;;;5070978;28;20446;-87
2022/05/31 00:17:30;;;;;;;5.63;4.10;;;10.00;99.90;;;;;;5054182;28;20040;-87
2022/05/31 00:19:57;;;;;;;6.88;3.90;;;10.00;99.90;;;;;;5054335;28;20040;-86
2022/05/31 00:22:25;;;;;;;6.32;4.50;;;10.00;99.90;;;;;;5071041;28;20045;-84
2022/05/31 00:24:52;;;;;;;6.03;4.13;;;10.10;99.90;;;;;;5082182;28;20044;-86
2022/05/31 00:27:22;;;;;;;4.63;3.35;;;10.10;99.90;;;;;;5041901;28;20044;-86
2022/05/31 00:29:48;;;;;;;4.90;3.50;;;10.10;99.90;;;;;;5080100;28;20078;-86
2022/05/31 00:32:21;;;;;;;4.13;3.72;;;10.10;99.90;;;;;;5079070;28;20427;-86
2022/05/31 00:34:49;;;;;;;5.03;3.60;;;10.20;99.90;;;;;;5075251;28;20033;-86
2022/05/31 00:37:16;;;;;;;4.80;3.80;;;10.20;99.90;;;;;;5058239;28;20043;-86
2022/05/31 00:39:42;;;;;;;5.03;3.63;;;10.10;99.90;;;;;;5059265;28;20072;-85
2022/05/31 00:42:12;;;;;;;6.20;4.13;;;10.10;99.90;;;;;;5058655;28;20051;-86
2022/05/31 00:44:38;;;;;;;6.35;3.92;;;10.20;99.90;;;;;;5076024;28;20041;-86
2022/05/31 00:47:35;;;;;;;6.43;3.55;;;10.20;99.90;;;;;;5058699;28;20444;-86
2022/05/31 00:50:12;;;;;;;6.20;3.90;;;10.20;99.90;;;;;;5041175;28;20093;-86
2022/05/31 00:52:46;;;;;;;4.30;3.40;;;10.20;99.90;;;;;;5059604;28;20493;-86
2022/05/31 00:55:15;;;;;;;4.20;3.45;;;10.20;99.90;;;;;;5058245;28;20366;-86
2022/05/31 00:58:00;;;;;;;6.18;3.80;;;10.20;99.90;;;;;;5058124;28;20033;-85
2022/05/31 01:00:26;;;;;;;4.55;3.40;;;10.20;99.90;;;;;;5074374;28;20036;-86
2022/05/31 01:02:52;;;;;;;5.30;4.15;;;10.30;99.90;;;;;;5074385;28;20048;-87
2022/05/31 01:05:19;;;;;;;4.65;3.22;;;10.30;99.90;;;;;;5057706;28;20041;-87
2022/05/31 01:07:46;;;;;;;4.50;3.55;;;10.30;99.90;;;;;;5057606;28;20147;-85
2022/05/31 01:10:12;;;;;;;;;;;10.30;99.90;;;;;;5075042;28;20439;-85
2022/05/31 01:12:42;;;;;;;5.90;3.53;;;10.30;99.90;;;;;;5058250;28;20330;-87
2022/05/31 01:15:10;;;;;;;5.22;4.10;;;10.30;99.90;;;;;;5074759;28;20071;-85
2022/05/31 01:17:36;;;;;;;4.93;3.72;;;10.30;99.90;;;;;;5073892;28;20181;-84
2022/05/31 01:20:07;;;;;;;6.50;3.65;;;10.20;99.90;;;;;;5040689;28;20502;-84
2022/05/31 01:22:38;;;;;;;5.78;4.03;;;10.30;99.90;;;;;;5040583;28;20040;-84
2022/05/31 01:25:25;;;;;;;4.63;4.10;;;10.20;99.90;;;;;;5058088;28;20123;-86
2022/05/31 01:28:37;;;;;;;5.07;4.20;;;10.20;99.90;;;;;;5074325;28;20086;-86
2022/05/31 01:31:17;;;;;;;4.85;4.18;;;10.30;99.90;;;;;;4980863;28;20057;-86
2022/05/31 01:34:07;;;;;;;5.75;3.67;;;10.20;99.90;;;;;;4997413;28;20046;-87
2022/05/31 01:36:53;;;;;;;6.40;4.30;;;10.20;99.90;;;;;;5034322;28;20045;-86
2022/05/31 01:39:40;;;;;;;5.80;3.97;;;10.20;99.90;;;;;;5057023;28;20480;-87
2022/05/31 01:42:33;;;;;;;4.32;3.70;;;10.20;99.90;;;;;;5057235;28;20041;-87
2022/05/31 01:45:08;;;;;;;7.05;3.90;;;10.20;99.90;;;;;;5073667;28;20094;-86
2022/05/31 01:47:36;;;;;;;6.38;4.20;;;10.10;99.90;;;;;;5076999;28;20096;-87
2022/05/31 01:50:05;;;;;;;5.05;4.05;;;10.20;99.90;;;;;;5060612;28;20047;-87
2022/05/31 01:52:32;;;;;;;7.20;4.90;;;10.10;99.90;;;;;;5056836;28;20036;-88
2022/05/31 01:54:59;;;;;;;4.22;3.72;;;10.10;99.90;;;;;;5057374;28;20042;-87
2022/05/31 01:57:25;;;;;;;6.60;4.20;;;10.10;99.90;;;;;;5056983;28;20036;-87
2022/05/31 01:59:57;;;;;;;5.07;4.10;;;10.10;99.90;;;;;;5040296;28;20036;-87
2022/05/31 02:02:25;;;;;;;5.95;4.40;;;10.10;99.90;;;;;;5073170;28;20118;-87
2022/05/31 02:04:50;;;;;;;5.05;4.47;;;10.90;99.90;;;;;;5056971;28;20043;-87
2022/05/31 02:07:20;;;;;;;5.33;4.47;;;10.20;99.90;;;;;;5023461;28;20123;-87
2022/05/31 02:09:47;;;;;;;6.13;4.65;;;10.10;99.90;;;;;;5056471;28;20071;-87
2022/05/31 02:12:15;;;;;;;5.15;4.40;;;10.30;99.90;;;;;;5056750;28;20036;-87
2022/05/31 02:14:41;;;;;;;6.80;4.32;;;10.10;99.90;;;;;;5040052;28;20045;-87
2022/05/31 02:17:07;;;;;;;5.28;4.65;;;10.10;99.90;;;;;;5056791;28;20118;-87
2022/05/31 02:19:33;;;;;;;6.60;4.53;;;10.10;99.90;;;;;;5056235;28;20043;-86
2022/05/31 02:22:01;;;;;;;5.15;4.65;;;10.10;99.90;;;;;;5056786;28;20037;-87
2022/05/31 02:24:27;;;;;;;7.72;5.00;;;10.30;99.90;;;;;;5072947;28;20040;-87
2022/05/31 02:26:54;;;;;;;7.63;5.10;;;10.10;99.90;;;;;;5056717;28;20105;-88
2022/05/31 02:29:32;;;;;;;7.07;4.85;;;10.00;99.90;;;;;;5039291;28;20106;-87
2022/05/31 02:32:00;;;;;;;5.80;4.72;;;10.10;99.90;;;;;;5073016;28;20080;-87
2022/05/31 02:34:29;;;;;;;5.47;4.88;;;10.10;99.90;;;;;;5072691;28;20071;-87
2022/05/31 02:36:54;;;;;;;5.03;4.53;;;10.20;99.90;;;;;;5056187;28;20032;-87
2022/05/31 02:39:21;;;;;;;10.35;4.90;;;10.00;99.90;;;;;;5056011;28;20059;-88
2022/05/31 02:41:46;;;;;;;7.25;5.05;;;10.20;99.90;;;;;;5072581;28;20076;-87
2022/05/31 02:44:12;;;;;;;5.82;4.93;;;10.10;99.90;;;;;;5072631;28;20503;-87
2022/05/31 02:46:38;;;;;;;5.35;4.85;;;10.10;99.90;;;;;;5039058;28;20036;-87
2022/05/31 02:49:05;;;;;;;5.57;4.43;;;10.00;99.90;;;;;;5071260;28;20044;-87
2022/05/31 02:51:40;;;;;;;5.18;4.65;;;10.10;99.90;;;;;;5038685;28;20115;-87
2022/05/31 02:54:07;;;;;;;5.03;4.53;;;10.10;99.90;;;;;;5072415;28;20415;-87
2022/05/31 02:56:33;;;;;;;6.07;5.35;;;10.10;99.90;;;;;;5072395;28;20654;-87
2022/05/31 02:58:59;;;;;;;4.70;4.30;;;10.00;99.90;;;;;;5039333;28;20041;-87
2022/05/31 03:01:31;;;;;;;6.97;4.80;;;10.30;99.90;;;;;;5072359;28;20810;-88
2022/05/31 03:03:57;;;;;;;5.38;4.70;;;10.20;99.90;;;;;;5055390;28;20045;-88
2022/05/31 03:06:23;;;;;;;5.32;4.75;;;10.00;99.90;;;;;;5055816;28;20511;-87
2022/05/31 03:08:50;;;;;;;5.97;4.90;;;10.00;99.90;;;;;;5072056;28;20057;-87
2022/05/31 03:11:18;;;;;;;;;;;9.90;99.90;;;;;;5055655;28;20044;-87
2022/05/31 03:13:44;;;;;;;;;;;9.90;99.90;;;;;;5072595;28;20384;-87
2022/05/31 03:16:12;;;;;;;5.47;4.93;;;9.90;99.90;;;;;;5055611;28;19916;-88
2022/05/31 03:18:49;;;;;;;5.95;5.35;;;9.80;99.90;;;;;;5055143;28;20274;-87
2022/05/31 03:21:21;;;;;;;6.43;5.18;;;9.90;99.90;;;;;;5072003;28;20072;-87
2022/05/31 03:23:53;;;;;;;5.82;5.05;;;9.90;99.90;;;;;;5071760;28;20036;-87
2022/05/31 03:26:20;;;;;;;6.50;4.63;;;9.80;99.90;;;;;;5072040;28;20055;-87
2022/05/31 03:28:47;;;;;;;7.68;5.20;;;9.80;99.90;;;;;;5071549;28;20032;-86
2022/05/31 03:31:13;;;;;;;6.93;4.57;;;9.80;99.90;;;;;;5038583;28;20419;-86
2022/05/31 03:33:39;;;;;;;6.65;5.07;;;9.80;99.90;;;;;;5054841;28;20169;-86
2022/05/31 03:36:05;;;;;;;6.38;4.90;;;9.90;99.90;;;;;;5054782;28;20052;-87
2022/05/31 03:38:30;;;;;;;6.75;4.75;;;9.90;99.90;;;;;;5054446;28;20040;-86
2022/05/31 03:40:56;;;;;;;4.93;4.38;;;9.90;99.90;;;;;;5038058;28;20040;-88
2022/05/31 03:43:26;;;;;;;5.90;4.80;;;9.90;99.90;;;;;;5054532;28;20044;-87
2022/05/31 03:45:52;;;;;;;5.50;4.78;;;10.00;99.90;;;;;;5055121;28;20052;-87
2022/05/31 03:48:18;;;;;;;5.60;5.00;;;9.90;99.90;;;;;;5037987;28;20048;-86
2022/05/31 03:50:44;;;;;;;7.70;4.70;;;9.80;99.90;;;;;;5071137;28;20405;-86
2022/05/31 03:53:13;;;;;;;5.57;4.80;;;9.80;99.90;;;;;;5054790;28;20049;-87
2022/05/31 03:55:42;;;;;;;5.38;4.57;;;9.90;99.90;;;;;;5071097;28;20131;-86
2022/05/31 03:58:08;;;;;;;9.05;5.55;;;10.80;99.90;;;;;;5054609;28;20032;-87
2022/05/31 04:00:34;;;;;;;;;;;9.80;99.90;;;;;;5054330;28;20045;-86
2022/05/31 04:03:00;;;;;;;6.75;4.95;;;9.80;99.90;;;;;;5071155;28;19916;-86
2022/05/31 04:05:27;;;;;;;5.88;5.28;;;9.90;99.90;;;;;;5054389;28;20094;-86
2022/05/31 04:07:54;;;;;;;7.20;5.50;;;9.90;99.90;;;;;;5071493;28;20093;-86
2022/05/31 04:10:20;;;;;;;7.55;5.35;;;9.90;99.90;;;;;;5037484;28;20135;-86
2022/05/31 04:12:46;;;;;;;;;;;9.90;99.90;;;;;;5055091;28;20044;-87
2022/05/31 04:15:12;;;;;;;6.60;5.72;;;10.00;99.90;;;;;;5071131;28;19916;-85
2022/05/31 04:17:38;;;;;;;6.88;5.95;;;9.80;99.90;;;;;;5054300;28;20094;-85
2022/05/31 04:20:04;;;;;;;7.60;5.82;;;9.80;99.90;;;;;;5021212;28;20072;-85
2022/05/31 04:22:31;;;;;;;7.38;5.70;;;9.80;99.90;;;;;;5037665;28;20461;-85
2022/05/31 04:25:01;;;;;;;6.75;5.50;;;9.80;99.90;;;;;;5054189;28;20523;-86
2022/05/31 04:27:27;;;;;;;6.38;5.70;;;9.90;99.90;;;;;;5071171;28;20045;-86
2022/05/31 04:29:53;;;;;;;7.25;5.60;;;10.20;99.90;;;;;;5021251;28;20045;-86
2022/05/31 04:32:18;;;;;;;7.43;5.10;;;9.90;99.90;;;;;;5070485;28;20473;-86
2022/05/31 04:34:44;;;;;;;7.93;5.70;;;10.00;99.90;;;;;;5054022;28;20040;-86
2022/05/31 04:37:10;;;;;;;6.45;5.55;;;9.90;99.90;;;;;;5054252;28;20283;-87
2022/05/31 04:39:36;;;;;;;7.68;5.50;;;10.00;99.90;;;;;;5054198;28;20123;-88
2022/05/31 04:42:02;;;;;;;8.30;5.80;;;10.00;99.90;;;;;;5037564;28;20086;-88
2022/05/31 04:44:28;;;;;;;8.07;5.50;;;10.00;99.90;;;;;;5053736;28;20067;-87
2022/05/31 04:46:54;;;;;;;7.33;5.43;;;10.00;99.90;;;;;;5054154;28;20045;-87
2022/05/31 04:49:20;;;;;;;6.32;5.35;;;10.10;99.90;;;;;;5037231;28;20040;-87
2022/05/31 04:51:46;;;;;;;7.13;5.07;;;10.20;99.90;;;;;;5053710;28;20064;-87
2022/05/31 04:54:11;;;;;;;6.18;4.72;;;10.10;99.90;;;;;;5054043;28;20059;-86
2022/05/31 04:56:37;;;;;;;7.10;5.10;;;10.10;99.90;;;;;;5054346;28;20040;-86
2022/05/31 04:59:03;;;;;;;8.75;4.95;;;10.10;99.90;;;;;;5020940;28;20040;-86
2022/05/31 05:01:29;;;;;;;6.00;5.03;;;10.10;99.90;;;;;;5053902;28;20261;-87
2022/05/31 05:03:55;;;;;;;8.00;5.35;;;10.70;99.90;;;;;;5071015;28;20407;-86
2022/05/31 05:06:22;;;;;;;6.00;5.15;;;10.10;99.90;;;;;;5037109;28;20044;-86
2022/05/31 05:08:48;;;;;;;8.20;5.40;;;10.10;99.90;;;;;;5070025;28;20060;-87
2022/05/31 05:11:18;;;;;;;6.95;5.65;;;10.40;99.90;;;;;;5054481;28;20078;-86
2022/05/31 05:13:44;;;;;;;8.18;5.55;;;10.10;99.90;;;;;;5074180;28;20040;-87
2022/05/31 05:16:12;;;;;;;8.10;5.82;;;10.10;99.90;;;;;;5074305;28;20484;-87
2022/05/31 05:18:38;;;;;;;10.02;5.97;;;10.10;99.90;;;;;;5057312;28;20066;-87
2022/05/31 05:21:06;;;;;;;8.40;5.80;;;10.20;99.90;;;;;;5040984;28;20040;-87
2022/05/31 05:23:32;;;;;;;10.07;5.97;;;10.10;99.90;;;;;;5073834;28;20170;-86
2022/05/31 05:25:59;;;;;;;9.73;6.10;;;10.80;99.90;;;;;;5057214;28;20049;-87
2022/05/31 05:31:22;;;;;;;9.48;6.30;;;10.30;99.90;;;;;;5075626;28;20049;-87
2022/05/31 05:33:48;;;;;;;8.27;6.15;;;10.40;99.90;;;;;;5056858;28;20040;-87
2022/05/31 05:36:14;;;;;;;8.65;5.57;;;10.40;99.90;;;;;;5023788;28;20067;-86
2022/05/31 05:38:40;;;;;;;9.00;6.20;;;10.40;99.90;;;;;;5073614;28;20093;-87
2022/05/31 05:41:05;;;;;;;7.28;5.85;;;10.50;99.90;;;;;;5040843;28;20560;-87
2022/05/31 05:43:31;;;;;;;7.50;6.25;;;10.50;99.90;;;;;;5073273;28;20048;-87
2022/05/31 05:45:57;;;;;;;9.13;6.28;;;10.50;99.90;;;;;;5040520;28;20044;-87
2022/05/31 05:48:22;;;;;;;7.15;5.53;;;10.60;99.90;;;;;;5056669;28;20691;-87
2022/05/31 05:50:48;;;;;;;8.52;5.70;;;10.60;99.90;;;;;;5073390;28;20462;-87
2022/05/31 05:53:14;;;;;;;6.85;5.55;;;10.60;99.90;;;;;;5040014;28;20071;-87
2022/05/31 05:55:40;;;;;;;10.37;6.40;;;10.70;99.90;;;;;;5057026;28;20066;-87
2022/05/31 05:58:09;;;;;;;7.50;5.65;;;10.80;99.90;;;;;;5056585;28;20279;-87
2022/05/31 06:00:44;;;;;;;8.52;5.47;;;10.80;99.90;;;;;;5056464;28;20131;-86
2022/05/31 06:03:20;;;;;;;9.82;5.80;;;11.40;99.90;;;;;;5056216;28;20094;-86
2022/05/31 06:05:48;;;;;;;6.97;6.05;;;10.90;99.90;;;;;;5073879;28;21071;-87
2022/05/31 06:08:20;;;;;;;7.53;6.20;;;10.90;99.90;;;;;;5056114;28;20052;-87
2022/05/31 06:11:08;;;;;;;9.10;5.57;;;10.90;99.90;;;;;;5056459;28;20082;-86
2022/05/31 06:13:38;;;;;;;10.10;6.35;;;11.00;99.90;;;;;;5073217;28;20040;-86
2022/05/31 06:16:06;;;;;;;7.47;5.35;;;11.10;99.90;;;;;;5073284;28;20039;-87
2022/05/31 06:18:37;;;;;;;7.47;5.68;;;11.10;99.90;;;;;;5073321;28;20095;-87
2022/05/31 06:21:06;;;;;;;8.75;5.68;;;11.20;99.90;;;;;;5081864;28;20044;-87
2022/05/31 06:23:33;;;;;;;7.63;5.72;;;11.20;99.90;;;;;;5062530;28;20039;-87
2022/05/31 06:25:59;;;;;;;7.18;5.88;;;11.30;99.90;;;;;;5057086;28;20407;-87
2022/05/31 06:28:25;;;;;;;8.43;5.82;;;11.40;99.90;;;;;;5039368;28;20048;-87
2022/05/31 06:30:51;;;;;;;8.07;5.33;;;11.40;99.90;;;;;;5039562;28;20075;-87
2022/05/31 06:33:16;;;;;;;8.43;6.07;;;11.50;99.90;;;;;;5039161;28;20063;-87
2022/05/31 06:35:42;;;;;;;7.57;5.67;;;11.60;99.90;;;;;;5055950;28;20736;-87
2022/05/31 06:38:08;;;;;;;7.05;5.43;;;11.60;99.90;;;;;;5072239;28;20048;-87
2022/05/31 06:40:34;;;;;;;7.43;5.50;;;11.60;99.90;;;;;;5055852;28;20052;-88
2022/05/31 06:42:59;;;;;;;7.60;5.60;;;11.70;99.90;;;;;;5022931;28;20278;-87
2022/05/31 06:45:25;;;;;;;7.30;5.07;;;11.70;99.90;;;;;;5044027;28;20040;-86
2022/05/31 06:47:51;;;;;;;8.07;5.07;;;11.80;99.90;;;;;;5055878;28;20492;-86
2022/05/31 06:50:17;;;;;;;8.15;5.18;;;11.90;99.90;;;;;;5055344;28;20048;-86
2022/05/31 06:58:11;;;;;;;6.05;5.03;;;12.20;99.90;;;;;;5058018;28;20039;-86
2022/05/31 07:00:36;;;;;;;6.33;4.60;;;12.20;99.90;;;;;;5055300;28;20134;-87
2022/05/31 07:03:03;;;;;;;6.80;4.95;;;12.30;99.90;;;;;;5055906;28;20040;-87
2022/05/31 07:05:29;;;;;;;5.97;4.72;;;12.40;99.90;;;;;;5043594;28;20481;-87
2022/05/31 07:07:55;;;;;;;;;;;12.40;99.90;;;;;;5039454;28;20041;-86
2022/05/31 07:10:21;;;;;;;6.20;5.07;;;12.50;99.90;;;;;;5055097;28;19927;-86
2022/05/31 07:12:48;;;;;;;6.15;4.65;;;12.70;99.90;;;;;;5055574;28;20087;-87
2022/05/31 07:15:14;;;;;;;6.55;4.68;;;12.80;99.90;;;;;;5055454;28;20047;-87
2022/05/31 07:17:40;;;;;;;8.13;4.78;;;13.00;99.90;;;;;;5060183;28;20047;-86
2022/05/31 07:20:08;;;;;;;5.80;4.35;;;13.10;99.90;;;;;;5072315;28;20400;-86
2022/05/31 07:22:35;;;;;;;5.63;4.38;;;13.30;99.90;;;;;;5038295;28;20047;-87
2022/05/31 07:25:01;;;;;;;5.30;4.10;;;13.50;99.90;;;;;;5055457;28;20408;-86
2022/05/31 07:27:27;;;;;;;5.25;4.00;;;13.60;99.90;;;;;;5038180;28;20094;-86
2022/05/31 07:29:53;;;;;;;4.75;3.72;;;13.80;99.90;;;;;;5071264;28;20047;-87
2022/05/31 07:32:19;;;;;;;4.85;3.70;;;13.90;99.90;;;;;;5037975;28;20480;-87
2022/05/31 07:34:44;;;;;;;4.70;3.58;;;14.00;99.90;;;;;;5059402;28;20033;-87
2022/05/31 07:37:10;;;;;;;5.72;3.67;;;14.10;99.90;;;;;;5058701;28;20090;-88
2022/05/31 07:39:36;;;;;;;6.15;3.83;;;14.30;99.90;;;;;;5044559;28;20044;-86
2022/05/31 07:42:02;;;;;;;5.90;3.60;;;14.50;99.90;;;;;;5038032;28;20044;-87
2022/05/31 07:44:28;;;;;;;5.45;3.55;;;14.70;99.90;;;;;;5037850;28;20041;-87
2022/05/31 07:46:54;;;;;;;4.97;3.40;;;14.80;99.90;;;;;;5076072;28;20047;-87
2022/05/31 07:49:21;;;;;;;5.30;3.47;;;14.90;99.90;;;;;;5054232;28;20081;-87
2022/05/31 07:51:47;;;;;;;5.72;3.67;;;15.00;99.90;;;;;;5059433;28;20501;-87
2022/05/31 07:54:13;;;;;;;4.97;3.30;;;15.10;99.90;;;;;;5038928;28;20392;-87
2022/05/31 07:56:39;;;;;;;5.28;3.17;;;15.30;99.90;;;;;;5060492;28;20393;-87
2022/05/31 07:59:05;;;;;;;5.40;3.42;;;15.40;99.90;;;;;;5055201;28;20054;-87
2022/05/31 08:01:31;;;;;;;4.78;2.80;;;15.40;99.90;;;;;;5038260;28;20128;-87
2022/05/31 08:03:56;;;;;;;5.63;3.20;;;15.50;99.90;;;;;;5038638;28;20068;-87
2022/05/31 08:06:27;;;;;;;4.93;3.33;;;15.80;99.90;;;;;;5054655;28;20488;-86
2022/05/31 08:08:53;;;;;;;4.75;3.30;;;16.00;99.90;;;;;;5055003;28;20049;-87
2022/05/31 08:11:27;;;;;;;5.47;3.30;;;16.10;99.90;;;;;;5038109;28;20496;-87
2022/05/31 08:13:53;;;;;;;4.07;3.13;;;16.30;99.90;;;;;;5054959;28;20044;-86
2022/05/31 08:16:24;;;;;;;4.88;2.95;;;16.40;99.90;;;;;;5054781;28;20044;-86
2022/05/31 08:18:50;;;;;;;5.75;2.92;;;16.80;99.90;;;;;;5076884;28;20051;-86
2022/05/31 08:21:19;;;;;;;7.22;2.63;;;17.10;99.90;;;;;;5054062;28;20036;-87
2022/05/31 08:23:45;;;;;;;5.30;3.22;;;17.10;99.90;;;;;;5070920;28;20393;-86
2022/05/31 08:26:11;;;;;;;;;;;17.30;99.90;;;;;;5072203;28;20040;-86
2022/05/31 08:28:37;;;;;;;4.15;2.53;;;17.30;99.90;;;;;;5037867;28;19916;-86
2022/05/31 08:31:05;;;;;;;;;;;17.40;99.90;;;;;;5054924;28;20033;-87
2022/05/31 08:33:31;;;;;;;4.05;3.30;;;17.50;99.90;;;;;;5071297;28;19920;-87
2022/05/31 08:35:57;;;;;;;4.68;3.08;;;17.60;99.90;;;;;;5071587;28;20507;-86
2022/05/31 08:38:23;;;;;;;5.10;3.50;;;17.40;99.90;;;;;;5049886;28;20048;-87
2022/05/31 08:41:07;;;;;;;4.70;2.88;;;17.50;99.90;;;;;;5059885;28;20055;-88
2022/05/31 08:44:05;;;;;;;3.85;2.58;;;17.80;99.90;;;;;;5062167;28;20051;-88
2022/05/31 08:46:45;;;;;;;5.18;2.70;;;17.80;99.90;;;;;;5072280;28;20044;-85
2022/05/31 08:49:17;;;;;;;4.20;2.83;;;17.80;99.90;;;;;;5058460;28;20492;-86
2022/05/31 08:52:05;;;;;;;3.58;2.65;;;17.80;99.90;;;;;;5058094;28;20040;-86
2022/05/31 08:57:44;;;;;;;;;;;17.80;99.90;;;;;;5075304;28;20048;-89
2022/05/31 09:00:18;;;;;;;4.22;2.60;;;17.80;99.90;;;;;;5050260;28;19916;-88
2022/05/31 09:03:00;;;;;;;4.15;2.30;;;18.10;99.90;;;;;;5041825;28;20047;-88
2022/05/31 09:05:32;;;;;;;4.65;2.50;;;18.50;99.90;;;;;;5041519;28;20040;-87
2022/05/31 09:08:26;;;;;;;4.13;2.15;;;19.10;99.90;;;;;;5041562;28;20043;-86
2022/05/31 09:11:06;;;;;;;2.70;2.28;;;19.40;99.90;;;;;;5041817;28;20040;-86
2022/05/31 09:13:46;;;;;;;3.75;2.08;;;19.70;99.90;;;;;;5041165;28;20032;-88
2022/05/31 09:16:36;;;;;;;6.78;2.30;;;20.00;99.90;;;;;;5057935;28;20028;-88
2022/05/31 09:19:09;;;;;;;2.90;2.10;;;20.10;99.90;;;;;;5012171;28;20132;-87
2022/05/31 09:21:45;;;;;;;4.18;2.53;;;20.30;99.90;;;;;;5041520;28;20044;-85
2022/05/31 09:24:14;;;;;;;2.80;1.88;;;20.20;99.90;;;;;;5041393;28;20048;-86
2022/05/31 09:26:59;;;;;;;3.83;2.22;;;20.20;99.90;;;;;;5057475;28;20049;-86
2022/05/31 09:30:01;;;;;;;5.47;2.13;;;20.30;99.90;;;;;;5061419;28;20056;-86
2022/05/31 09:33:04;;;;;;;3.17;1.88;;;20.80;99.90;;;;;;5056863;28;20040;-87
2022/05/31 09:35:54;;;;;;;2.85;1.48;;;21.00;99.90;;;;;;5062636;28;20037;-88
2022/05/31 09:38:56;;;;;;;3.47;1.90;;;21.20;99.90;;;;;;5056313;28;20089;-87
2022/05/31 09:41:36;;;;;;;5.38;2.30;;;21.40;99.90;;;;;;5048623;28;20085;-86
2022/05/31 09:44:19;;;;;;;5.38;2.38;;;21.30;99.40;;;;;;5057931;28;20051;-87
2022/05/31 09:47:16;;;;;;;5.32;1.90;;;20.70;99.00;;;;;;5060977;28;20033;-87
2022/05/31 09:49:44;;;;;;;2.93;1.80;;;20.30;98.90;;;;;;5056409;28;20052;-87
2022/05/31 09:52:37;;;;;;;5.03;2.00;;;19.90;99.90;;;;;;5045482;28;20665;-87
2022/05/31 09:58:30;;;;;;;3.55;2.05;;;19.30;99.90;;;;;;5060328;28;20504;-87
2022/05/31 10:01:05;;;;;;;5.15;2.08;;;19.10;99.90;;;;;;5057266;28;20485;-86
2022/05/31 10:03:39;;;;;;;4.30;2.25;;;18.90;99.90;;;;;;5056959;28;20044;-85
2022/05/31 10:06:18;;;;;;;4.00;1.80;;;18.80;99.80;;;;;;5064142;28;20044;-84
2022/05/31 10:08:47;;;;;;;2.92;1.90;;;18.80;99.90;;;;;;5058481;28;20063;-86
2022/05/31 10:11:22;;;;;;;5.15;1.92;;;18.50;99.90;;;;;;5039767;28;20128;-86
2022/05/31 10:14:25;;;;;;;4.78;2.22;;;18.60;99.30;;;;;;5040098;28;20052;-86
2022/05/31 10:16:52;;;;;;;5.45;1.90;;;18.50;99.90;;;;;;5039742;28;20143;-86
2022/05/31 10:19:30;;;;;;;6.60;2.42;;;18.50;99.90;;;;;;5039480;28;20047;-86
2022/05/31 10:22:13;;;;;;;3.72;2.13;;;18.40;99.90;;;;;;5039313;28;20131;-87
2022/05/31 10:24:39;;;;;;;4.07;2.30;;;18.60;99.90;;;;;;5042029;28;20071;-90
2022/05/31 10:27:07;;;;;;;5.07;2.53;;;18.40;99.90;;;;;;5040149;28;20048;-88
2022/05/31 10:29:46;;;;;;;3.45;2.10;;;18.50;99.70;;;;;;5044481;28;20044;-89
2022/05/31 10:32:41;;;;;;;5.00;2.45;;;18.50;99.50;;;;;;5061454;28;20036;-87
2022/05/31 10:35:29;;;;;;;4.40;2.20;;;18.60;99.70;;;;;;5056450;28;20036;-87
2022/05/31 10:38:00;;;;;;;3.92;2.22;;;18.70;99.70;;;;;;5056341;28;20039;-87
2022/05/31 10:40:49;;;;;;;4.03;2.10;;;18.60;99.70;;;;;;5039688;28;20373;-88
2022/05/31 10:43:15;;;;;;;3.10;1.80;;;18.60;99.00;;;;;;5039967;28;20446;-88
2022/05/31 10:45:43;;;;;;;3.70;1.73;;;18.50;99.70;;;;;;5056282;28;20041;-87
2022/05/31 10:48:09;;;;;;;4.22;2.08;;;18.60;99.90;;;;;;5056129;28;20131;-87
2022/05/31 10:50:55;;;;;;;6.57;2.28;;;18.50;99.80;;;;;;5022852;28;20128;-87
2022/05/31 10:53:29;;;;;;;5.15;1.80;;;18.40;99.60;;;;;;5055745;28;20086;-87
2022/05/31 10:56:20;;;;;;;6.03;2.20;;;18.50;99.90;;;;;;5039945;28;20127;-88
2022/05/31 10:58:58;;;;;;;4.15;1.70;;;18.60;99.90;;;;;;5056413;28;20123;-89
2022/05/31 11:01:46;;;;;;;4.20;1.90;;;18.60;99.70;;;;;;5056544;28;20051;-87
2022/05/31 11:04:38;;;;;;;3.50;1.98;;;18.90;99.90;;;;;;5056089;28;20123;-88
2022/05/31 11:07:27;;;;;;;5.03;2.05;;;19.20;99.50;;;;;;5042426;28;20048;-88
2022/05/31 11:12:58;;;;;;;3.95;2.40;;;19.70;98.50;;;;;;5055998;28;20404;-86
2022/05/31 11:16:03;;;;;;;2.72;2.00;;;19.70;98.00;;;;;;5038801;28;20036;-86
2022/05/31 11:18:59;;;;;;;5.28;2.15;;;19.80;97.80;;;;;;4988093;28;20129;-88
2022/05/31 11:21:47;;;;;;;5.10;2.25;;;20.00;97.40;;;;;;5041589;28;20086;-86
2022/05/31 11:24:47;;;;;;;4.70;2.13;;;19.90;97.30;;;;;;5055882;28;20450;-87
2022/05/31 11:27:32;;;;;;;5.32;2.17;;;19.90;97.10;;;;;;5051084;28;20047;-87
2022/05/31 11:30:11;;;;;;;4.93;2.08;;;19.90;96.90;;;;;;5039732;28;20066;-86
2022/05/31 11:33:00;;;;;;;4.88;2.05;;;19.90;96.90;;;;;;5054736;28;20076;-86
2022/05/31 11:35:43;;;;;;;4.00;2.20;;;20.00;96.50;;;;;;5053782;28;20067;-86
2022/05/31 11:38:18;;;;;;;4.18;1.90;;;20.40;96.70;;;;;;5037915;28;20054;-86
2022/05/31 11:41:06;;;;;;;4.68;1.88;;;20.80;96.40;;;;;;5038482;28;20508;-86
2022/05/31 11:44:04;;;;;;;5.43;2.65;;;20.80;95.90;;;;;;5054983;28;20169;-86
2022/05/31 11:46:40;;;;;;;;;;;20.70;95.90;;;;;;5011487;28;20052;-86
2022/05/31 11:49:12;;;;;;;4.20;2.13;;;20.70;95.50;;;;;;5037696;28;20296;-86
2022/05/31 11:51:56;;;;;;;3.45;2.03;;;20.70;95.80;;;;;;5054461;28;20105;-86
2022/05/31 11:55:25;;;;;;;6.07;2.20;;;20.50;95.60;;;;;;5043489;28;20127;-86
2022/05/31 11:57:43;;;;;;;5.55;2.42;;;20.50;96.00;;;;;;5054147;28;20131;-86
2022/05/31 12:00:11;;;;;;;5.95;2.45;;;20.80;95.70;;;;;;5059754;28;20135;-86
2022/05/31 12:02:54;;;;;;;5.07;2.17;;;21.00;95.20;;;;;;5037842;28;20040;-86
2022/05/31 12:05:25;;;;;;;3.80;2.38;;;21.30;95.00;;;;;;5037767;28;20552;-85
2022/05/31 12:07:59;;;;;;;6.18;2.10;;;21.30;95.30;;;;;;5058444;28;20040;-86
2022/05/31 12:10:32;;;;;;;2.80;1.80;;;21.10;94.40;;;;;;5037842;28;20480;-85
2022/05/31 12:13:07;;;;;;;4.35;2.30;;;21.10;94.50;;;;;;5054729;28;20496;-85
2022/05/31 12:15:35;;;;;;;3.20;2.00;;;21.20;94.00;;;;;;5054345;28;20040;-85
2022/05/31 12:18:10;;;;;;;5.03;2.30;;;21.10;94.80;;;;;;5037852;28;20391;-85
2022/05/31 12:21:04;;;;;;;3.53;2.05;;;21.10;93.90;;;;;;5041789;28;20100;-85
2022/05/31 12:23:50;;;;;;;3.47;2.17;;;20.80;93.60;;;;;;5054284;28;20071;-85
2022/05/31 12:26:44;;;;;;;3.20;2.17;;;20.80;93.60;;;;;;5054462;28;20106;-85
2022/05/31 12:29:22;;;;;;;3.28;1.90;;;20.80;93.40;;;;;;5032030;28;20044;-85
2022/05/31 12:31:48;;;;;;;4.75;1.80;;;20.80;94.00;;;;;;5058739;28;20047;-85
2022/05/31 12:34:20;;;;;;;3.15;1.80;;;20.50;94.40;;;;;;5047945;28;20064;-86
2022/05/31 12:36:56;;;;;;;3.50;1.80;;;20.30;94.00;;;;;;5057988;28;20492;-85
2022/05/31 12:39:27;;;;;;;5.30;1.70;;;20.10;94.20;;;;;;5038421;28;20407;-85
2022/05/31 12:41:54;;;;;;;4.30;1.90;;;20.20;94.50;;;;;;5025616;28;20549;-85
2022/05/31 12:44:31;;;;;;;2.80;1.60;;;20.10;92.90;;;;;;5058187;28;20036;-85
2022/05/31 12:47:17;;;;;;;3.85;2.03;;;19.70;92.80;;;;;;5047710;28;20059;-85
2022/05/31 12:49:52;;;;;;;2.70;2.20;;;19.60;93.80;;;;;;5036717;28;20095;-86
2022/05/31 12:52:45;;;;;;;4.85;1.95;;;19.40;94.00;;;;;;5042466;28;20051;-85
2022/05/31 12:55:26;;;;;;;3.53;1.67;;;19.30;94.60;;;;;;5054095;28;20040;-85
2022/05/31 13:00:59;;;;;;;4.32;2.00;;;19.20;95.50;;;;;;5053951;28;20138;-86
2022/05/31 13:03:32;;;;;;;3.03;1.98;;;19.10;95.50;;;;;;5053825;28;20051;-86
2022/05/31 13:06:12;;;;;;;4.75;1.83;;;19.00;95.50;;;;;;5053777;28;20079;-86
2022/05/31 13:08:57;;;;;;;2.95;1.65;;;19.10;95.80;;;;;;5042164;28;20067;-85
2022/05/31 13:20:42;;;;;;;4.57;1.70;;;19.00;95.90;;;;;;5042476;28;20051;-85
2022/05/31 13:23:20;;;;;;;3.30;1.65;;;19.00;95.70;;;;;;5037458;28;20131;-85
2022/05/31 13:26:06;;;;;;;4.82;2.25;;;18.90;96.40;;;;;;5055709;28;20401;-85
2022/05/31 13:28:36;;;;;;;5.50;2.28;;;18.90;95.50;;;;;;5022274;28;20494;-85
2022/05/31 13:31:15;;;;;;;3.45;1.95;;;19.00;95.40;;;;;;5054404;28;20041;-85
2022/05/31 13:33:42;;;;;;;3.50;1.90;;;18.90;95.20;;;;;;5057704;28;20040;-85
2022/05/31 13:36:22;;;;;;;4.50;1.90;;;18.90;95.60;;;;;;5058629;28;20413;-84
2022/05/31 13:38:56;;;;;;;3.35;2.20;;;19.00;95.60;;;;;;5041059;28;20782;-84
2022/05/31 13:41:22;;;;;;;4.05;2.42;;;18.90;96.30;;;;;;5056281;28;20094;-84
2022/05/31 13:43:50;;;;;;;5.05;2.88;;;18.90;95.60;;;;;;5024661;28;20098;-85
2022/05/31 13:46:38;;;;;;;4.50;2.92;;;18.80;95.60;;;;;;5058878;28;20121;-84